Time;durP1;ratioP1;P1;durP2;ratioP2;P2;SDS_P1;SDS_P2;PMS_P1;PMS_P2;Temp;Humidity;BMP_temperature;BMP_pressure;BME280_temperature;BME280_humidity;BME280_pressure;Samples;Min_cycle;Max_cycle;Signal;HPM_P1;HPM_P2
2023/04/27 00:00:53;;;;;;;4.78;2.40;;;;;;;8.46;42.47;99447.13;4927539;28;20055;-58
2023/04/27 00:03:23;;;;;;;5.22;2.45;;;;;;;8.56;43.66;99474.72;4927504;28;20063;-59
2023/04/27 00:05:55;;;;;;;6.05;2.22;;;;;;;8.56;41.72;99458.22;4927816;28;20069;-58
2023/04/27 00:08:25;;;;;;;3.17;2.20;;;;;;;8.64;41.04;99454.59;4928308;28;20054;-58
2023/04/27 00:10:56;;;;;;;4.45;2.30;;;;;;;8.81;40.78;99461.16;4929779;28;20048;-59
2023/04/27 00:13:27;;;;;;;3.15;1.92;;;;;;;8.79;41.44;99462.97;4920308;28;20047;-59
2023/04/27 00:16:02;;;;;;;2.45;2.00;;;;;;;8.77;41.60;99451.72;4923611;28;20051;-58
2023/04/27 00:18:33;;;;;;;6.07;2.20;;;;;;;8.69;41.13;99459.69;4920376;28;20052;-56
2023/04/27 00:21:04;;;;;;;2.92;2.10;;;;;;;8.62;41.64;99469.38;4927763;28;20051;-57
2023/04/27 00:23:35;;;;;;;6.28;2.38;;;;;;;8.66;40.70;99438.91;4928266;28;20066;-56
2023/04/27 00:26:05;;;;;;;6.50;2.00;;;;;;;8.76;40.77;99455.19;4927739;28;20101;-58
2023/04/27 00:28:35;;;;;;;2.13;1.90;;;;;;;8.73;39.72;99465.69;4927167;28;20056;-56
2023/04/27 00:31:08;;;;;;;3.15;2.00;;;;;;;8.71;39.35;99451.84;4928028;28;20059;-58
2023/04/27 00:33:38;;;;;;;5.47;2.05;;;;;;;8.91;41.33;99449.66;4927463;28;20636;-57
2023/04/27 00:36:09;;;;;;;6.10;2.63;;;;;;;9.39;41.79;99445.94;4924658;28;20049;-59
2023/04/27 00:38:40;;;;;;;3.40;2.13;;;;;;;9.45;39.69;99461.41;4928693;28;20053;-58
2023/04/27 00:41:10;;;;;;;11.52;4.53;;;;;;;9.65;39.62;99455.72;4927708;28;20663;-58
2023/04/27 00:43:45;;;;;;;4.05;2.30;;;;;;;9.42;39.54;99438.03;4928046;28;20142;-59
2023/04/27 00:46:19;;;;;;;4.22;2.30;;;;;;;9.35;38.50;99459.94;4927515;28;20044;-58
2023/04/27 00:48:49;;;;;;;4.93;2.00;;;;;;;9.25;38.29;99454.09;4920207;28;20045;-59
2023/04/27 00:51:20;;;;;;;2.90;1.80;;;;;;;9.25;38.39;99448.88;4929340;28;20063;-59
2023/04/27 00:53:53;;;;;;;3.90;1.95;;;;;;;9.42;37.94;99446.72;4929102;28;20063;-58
2023/04/27 00:56:24;;;;;;;8.55;2.30;;;;;;;9.59;37.85;99448.06;4927618;28;20426;-57
2023/04/27 00:58:54;;;;;;;3.25;2.00;;;;;;;9.35;37.04;99468.59;4927683;28;20432;-58
2023/04/27 01:01:26;;;;;;;5.18;1.65;;;;;;;9.14;34.79;99435.25;4920577;28;20557;-57
2023/04/27 01:03:57;;;;;;;2.65;2.08;;;;;;;9.07;37.41;99451.00;4926606;28;20041;-59
2023/04/27 01:06:28;;;;;;;6.53;2.10;;;;;;;9.40;38.78;99458.91;4930723;28;22508;-59
2023/04/27 01:08:59;;;;;;;5.82;1.95;;;;;;;9.54;35.76;99445.56;4913774;28;20095;-58
2023/04/27 01:11:29;;;;;;;2.63;1.98;;;;;;;9.52;36.90;99456.91;4940635;28;20049;-57
2023/04/27 01:14:05;;;;;;;6.40;2.45;;;;;;;9.64;35.78;99456.63;4936797;28;20053;-58
2023/04/27 01:16:37;;;;;;;6.07;2.15;;;;;;;9.72;35.71;99454.66;4935027;28;20097;-57
2023/04/27 01:19:09;;;;;;;3.85;2.03;;;;;;;9.39;35.30;99373.78;4932948;28;20116;-57
2023/04/27 01:21:39;;;;;;;4.57;1.98;;;;;;;9.81;35.31;99454.44;4923396;28;20049;-59
2023/04/27 01:24:12;;;;;;;2.78;1.80;;;;;;;9.83;35.53;99430.88;4927247;28;20071;-57
2023/04/27 01:26:42;;;;;;;4.80;2.03;;;;;;;9.77;36.37;99439.75;4922283;28;20052;-58
2023/04/27 01:29:13;;;;;;;3.78;1.90;;;;;;;9.97;34.23;99435.75;4911947;28;20064;-58
2023/04/27 01:31:43;;;;;;;6.13;2.00;;;;;;;10.36;36.94;99441.66;4911346;28;20053;-57
2023/04/27 01:34:14;;;;;;;7.22;2.33;;;;;;;10.31;34.41;99452.22;4911323;28;20506;-58
2023/04/27 01:36:44;;;;;;;2.15;1.73;;;;;;;10.11;32.13;99436.22;4925925;28;20077;-58
2023/04/27 01:39:16;;;;;;;3.60;1.85;;;;;;;10.00;33.12;99454.78;4930436;28;20483;-58
2023/04/27 01:41:47;;;;;;;5.28;2.00;;;;;;;9.93;33.29;99443.66;4930735;28;20100;-58
2023/04/27 01:44:19;;;;;;;4.18;1.88;;;;;;;10.18;33.22;99442.97;4948128;28;20052;-57
2023/04/27 01:46:49;;;;;;;5.82;2.08;;;;;;;10.35;34.45;99440.78;4927059;28;20050;-58
2023/04/27 01:49:20;;;;;;;4.72;1.90;;;;;;;10.49;33.92;99447.38;4942325;28;20710;-57
2023/04/27 01:51:50;;;;;;;5.07;1.88;;;;;;;10.50;33.10;99433.41;4950150;28;20116;-58
2023/04/27 01:54:22;;;;;;;5.68;2.20;;;;;;;10.40;32.67;99438.03;4911705;28;20053;-58
2023/04/27 01:56:57;;;;;;;2.08;1.70;;;;;;;10.47;33.92;99436.97;4911678;28;20512;-58
2023/04/27 01:59:27;;;;;;;6.30;2.10;;;;;;;10.46;32.30;99443.09;4912312;28;20060;-60
2023/04/27 02:01:58;;;;;;;6.10;2.30;;;;;;;10.57;34.81;99440.16;4925807;28;20673;-58
2023/04/27 02:04:29;;;;;;;4.18;1.70;;;;;;;10.74;32.42;99431.81;4938432;28;20053;-57
2023/04/27 02:06:59;;;;;;;4.90;2.00;;;;;;;10.74;33.29;99432.69;4934686;28;20464;-58
2023/04/27 02:09:31;;;;;;;5.32;1.92;;;;;;;10.64;33.55;99414.72;4932026;28;20167;-59
2023/04/27 02:12:02;;;;;;;9.80;2.65;;;;;;;10.86;32.41;99438.41;4933345;28;20130;-59
2023/04/27 02:14:33;;;;;;;7.13;1.77;;;;;;;10.45;31.21;99425.69;4935100;28;20048;-57
2023/04/27 02:17:03;;;;;;;2.67;1.70;;;;;;;10.24;33.03;99437.59;4934099;28;20425;-56
2023/04/27 02:19:34;;;;;;;4.88;1.90;;;;;;;10.39;33.28;99445.94;4925019;28;20047;-58
2023/04/27 02:22:04;;;;;;;3.20;1.80;;;;;;;10.54;32.86;99425.44;4913476;28;20384;-57
2023/04/27 02:24:38;;;;;;;9.57;1.80;;;;;;;10.37;33.21;99419.84;4905078;28;20604;-56
2023/04/27 02:27:09;;;;;;;1.50;1.40;;;;;;;10.48;30.89;99403.84;4889859;28;20095;-57
2023/04/27 02:29:40;;;;;;;3.47;1.38;;;;;;;10.07;31.34;99392.84;4893909;28;21118;-59
2023/04/27 02:32:11;;;;;;;9.98;2.17;;;;;;;10.20;32.49;99430.72;4892176;28;20048;-59
2023/04/27 02:34:41;;;;;;;3.22;1.83;;;;;;;10.04;31.66;99425.09;4892723;28;20052;-58
2023/04/27 02:37:12;;;;;;;6.47;2.10;;;;;;;10.17;33.03;99436.03;4910866;28;20434;-57
2023/04/27 02:39:44;;;;;;;2.45;1.60;;;;;;;10.34;30.94;99381.63;4911253;28;20109;-59
2023/04/27 02:42:15;;;;;;;13.32;2.03;;;;;;;10.52;32.89;99426.38;4911512;28;20048;-59
2023/04/27 02:44:45;;;;;;;8.07;1.70;;;;;;;10.58;32.11;99415.75;4911692;28;20750;-58
2023/04/27 02:47:16;;;;;;;5.35;1.70;;;;;;;10.44;31.70;99407.47;4911020;28;20044;-58
2023/04/27 02:49:47;;;;;;;9.65;1.90;;;;;;;10.46;33.99;99401.31;4911960;28;20499;-59
2023/04/27 02:52:17;;;;;;;6.90;2.10;;;;;;;10.44;32.00;99407.47;4904742;28;20853;-57
2023/04/27 02:54:49;;;;;;;6.50;2.10;;;;;;;10.51;33.10;99406.41;4910175;28;20102;-58
2023/04/27 02:57:19;;;;;;;3.13;1.33;;;;;;;10.46;30.53;99398.69;4903015;28;20045;-59
2023/04/27 02:59:50;;;;;;;11.27;1.70;;;;;;;10.46;31.42;99398.69;4912910;28;20079;-58
2023/04/27 03:02:20;;;;;;;5.95;1.40;;;;;;;10.15;30.36;99403.91;4900108;28;20044;-58
2023/04/27 03:04:55;;;;;;;8.23;2.00;;;;;;;10.21;31.68;99416.81;4902795;28;20551;-57
2023/04/27 03:07:25;;;;;;;6.70;1.65;;;;;;;10.38;31.73;99407.63;4909722;28;20052;-57
2023/04/27 03:09:58;;;;;;;7.13;2.35;;;;;;;10.60;31.47;99413.94;4909172;28;20111;-57
2023/04/27 03:12:28;;;;;;;2.72;1.75;;;;;;;10.45;29.39;99389.13;4902106;28;20173;-56
2023/04/27 03:14:59;;;;;;;7.70;2.13;;;;;;;10.40;31.33;99416.28;4914183;28;20123;-60
2023/04/27 03:17:30;;;;;;;4.10;1.83;;;;;;;10.17;29.36;99420.38;4916785;28;20526;-57
2023/04/27 03:20:00;;;;;;;7.90;2.08;;;;;;;10.23;31.94;99435.88;4913837;28;20119;-56
2023/04/27 03:22:31;;;;;;;8.40;2.10;;;;;;;10.24;31.81;99429.75;4913315;28;20482;-58
2023/04/27 03:25:07;;;;;;;13.00;2.47;;;;;;;10.33;31.60;99440.00;4919514;28;20453;-57
2023/04/27 03:27:42;;;;;;;8.02;2.22;;;;;;;10.39;31.30;99430.25;4920468;28;20110;-57
2023/04/27 03:30:13;;;;;;;5.50;2.13;;;;;;;10.45;31.44;99417.00;4928415;28;20058;-57
2023/04/27 03:32:44;;;;;;;12.05;2.10;;;;;;;10.59;31.66;99433.13;4928652;28;20056;-57
2023/04/27 03:35:16;;;;;;;5.78;2.30;;;;;;;10.57;32.71;99429.72;4927813;28;20070;-57
2023/04/27 03:37:46;;;;;;;5.57;2.10;;;;;;;10.54;32.75;99440.25;4928160;28;20071;-58
2023/04/27 03:40:18;;;;;;;3.70;1.70;;;;;;;10.57;30.34;99419.25;4928086;28;20059;-57
2023/04/27 03:42:49;;;;;;;3.13;1.83;;;;;;;10.69;31.71;99431.97;4923665;28;20051;-58
2023/04/27 03:45:21;;;;;;;6.30;1.90;;;;;;;10.83;32.81;99428.06;4931860;28;20049;-58
2023/04/27 03:47:51;;;;;;;23.02;2.70;;;;;;;10.82;32.03;99408.06;4913590;28;20045;-58
2023/04/27 03:50:22;;;;;;;6.95;2.38;;;;;;;10.69;31.58;99442.41;4932460;28;20078;-57
2023/04/27 03:52:52;;;;;;;2.60;1.60;;;;;;;10.55;31.27;99436.72;4916855;28;20118;-57
2023/04/27 03:55:24;;;;;;;7.22;1.90;;;;;;;10.63;31.97;99429.50;4906977;28;20669;-58
2023/04/27 03:57:55;;;;;;;10.38;2.00;;;;;;;10.74;32.57;99440.50;4902065;28;20048;-56
2023/04/27 04:00:25;;;;;;;2.88;1.90;;;;;;;10.82;30.82;99442.91;4928113;28;20113;-57
2023/04/27 04:02:56;;;;;;;10.68;2.25;;;;;;;10.84;31.15;99448.94;4927733;28;20520;-57
2023/04/27 04:05:27;;;;;;;8.23;2.05;;;;;;;10.94;32.32;99445.13;4928236;28;20067;-57
2023/04/27 04:07:57;;;;;;;6.22;2.10;;;;;;;10.90;31.20;99453.09;4928103;28;20040;-57
2023/04/27 04:10:32;;;;;;;5.63;1.80;;;;;;;10.84;30.85;99448.09;4918253;28;20059;-57
2023/04/27 04:13:03;;;;;;;7.20;2.22;;;;;;;10.74;32.22;99453.56;4925044;28;20121;-57
2023/04/27 04:15:33;;;;;;;9.75;2.58;;;;;;;10.72;31.96;99444.94;4915263;28;20475;-57
2023/04/27 04:18:04;;;;;;;6.63;2.00;;;;;;;10.86;31.45;99446.25;4912883;28;20071;-57
2023/04/27 04:20:36;;;;;;;4.63;2.50;;;;;;;11.00;32.18;99446.69;4913546;28;20063;-57
2023/04/27 04:23:06;;;;;;;5.32;2.05;;;;;;;11.05;30.88;99421.25;4927139;28;20051;-56
2023/04/27 04:25:39;;;;;;;4.75;2.00;;;;;;;11.02;31.15;99419.59;4927936;28;20075;-57
2023/04/27 04:28:09;;;;;;;2.53;1.92;;;;;;;10.69;30.20;99449.41;4922439;28;20049;-58
2023/04/27 04:30:40;;;;;;;8.80;2.13;;;;;;;10.64;31.34;99446.91;4929241;28;20080;-59
2023/04/27 04:33:10;;;;;;;4.53;2.20;;;;;;;10.68;31.04;99458.97;4927745;28;20424;-59
2023/04/27 04:35:41;;;;;;;11.50;2.10;;;;;;;10.61;30.30;99482.72;4929218;28;20487;-58
2023/04/27 04:38:12;;;;;;;2.85;2.00;;;;;;;10.55;31.38;99483.75;4931845;28;20355;-57
2023/04/27 04:40:44;;;;;;;4.70;1.90;;;;;;;10.74;29.52;99474.47;4931836;28;20044;-58
2023/04/27 04:43:15;;;;;;;10.98;2.10;;;;;;;10.95;30.82;99490.41;4931517;28;20425;-58
2023/04/27 04:45:45;;;;;;;4.53;2.10;;;;;;;10.93;31.28;99503.56;4930684;28;20054;-56
2023/04/27 04:48:16;;;;;;;9.13;2.25;;;;;;;10.99;29.72;99494.66;4931391;28;20085;-57
2023/04/27 04:50:47;;;;;;;14.85;2.67;;;;;;;11.16;29.49;99500.22;4931921;28;20043;-58
2023/04/27 04:53:17;;;;;;;3.83;2.13;;;;;;;11.10;29.35;99492.56;4932874;28;20040;-58
2023/04/27 04:55:49;;;;;;;11.50;2.60;;;;;;;10.99;30.15;99489.44;4920779;28;20467;-57
2023/04/27 04:58:20;;;;;;;5.05;2.20;;;;;;;10.98;29.34;99500.78;4916420;28;20049;-58
2023/04/27 05:00:50;;;;;;;5.05;2.10;;;;;;;11.00;28.63;99501.59;4921812;28;20055;-57
2023/04/27 05:03:20;;;;;;;8.68;2.50;;;;;;;11.02;29.76;99510.25;4932196;28;20052;-59
2023/04/27 05:05:51;;;;;;;6.55;2.28;;;;;;;10.82;28.73;99507.38;4936212;28;20048;-58
2023/04/27 05:08:22;;;;;;;8.82;3.50;;;;;;;10.93;29.26;99508.78;4935857;28;20143;-56
2023/04/27 05:10:54;;;;;;;6.95;2.67;;;;;;;11.09;28.52;99506.53;4931575;28;20105;-58
2023/04/27 05:13:25;;;;;;;6.45;2.88;;;;;;;11.06;28.70;99509.25;4931738;28;20052;-58
2023/04/27 05:16:05;;;;;;;3.28;1.80;;;;;;;11.01;27.54;99498.94;4931571;28;20059;-58
2023/04/27 05:18:36;;;;;;;5.10;2.55;;;;;;;10.90;28.34;99490.56;4934749;28;20047;-58
2023/04/27 05:21:13;;;;;;;11.05;2.38;;;;;;;11.02;29.03;99505.88;4937329;28;20047;-59
2023/04/27 05:23:44;;;;;;;5.30;2.00;;;;;;;11.09;29.52;99509.16;4925488;28;20055;-59
2023/04/27 05:26:18;;;;;;;4.55;2.60;;;;;;;11.10;27.30;99503.00;4916161;28;20097;-59
2023/04/27 05:28:49;;;;;;;14.57;2.35;;;;;;;11.12;28.24;99516.91;4934865;28;20049;-59
2023/04/27 05:31:20;;;;;;;9.13;2.75;;;;;;;11.29;28.57;99512.94;4936135;28;20045;-60
2023/04/27 05:33:50;;;;;;;11.43;2.63;;;;;;;11.10;27.16;99518.69;4936844;28;20534;-59
2023/04/27 05:36:21;;;;;;;11.68;2.30;;;;;;;10.85;27.08;99491.59;4935936;28;20066;-59
2023/04/27 05:38:51;;;;;;;5.00;2.13;;;;;;;11.01;27.21;99519.00;4935317;28;20101;-60
2023/04/27 05:41:23;;;;;;;7.22;2.30;;;;;;;11.01;28.17;99529.47;4920607;28;20091;-58
2023/04/27 05:43:54;;;;;;;7.68;2.00;;;;;;;11.16;27.40;99523.75;4933984;28;20056;-59
2023/04/27 05:46:24;;;;;;;7.07;2.05;;;;;;;11.06;26.98;99527.56;4922792;28;20491;-59
2023/04/27 05:48:55;;;;;;;4.85;1.88;;;;;;;10.83;26.39;99525.59;4925355;28;20047;-58
2023/04/27 05:51:26;;;;;;;3.80;1.92;;;;;;;10.61;27.08;99530.63;4937319;28;20051;-59
2023/04/27 05:53:56;;;;;;;3.03;1.90;;;;;;;10.71;26.84;99526.00;4918221;28;20475;-58
2023/04/27 05:56:28;;;;;;;7.88;2.20;;;;;;;10.83;28.19;99525.59;4919063;28;20059;-58
2023/04/27 05:58:58;;;;;;;5.93;2.13;;;;;;;11.10;28.25;99523.09;4916519;28;20061;-58
2023/04/27 06:01:31;;;;;;;5.60;2.38;;;;;;;11.15;28.58;99527.25;4930550;28;20047;-59
2023/04/27 06:04:01;;;;;;;8.15;2.10;;;;;;;11.03;27.36;99504.09;4936887;28;20486;-58
2023/04/27 06:06:35;;;;;;;4.22;2.10;;;;;;;11.12;26.90;99521.28;4936659;28;20109;-58
2023/04/27 06:09:06;;;;;;;8.63;2.58;;;;;;;11.14;28.15;99536.03;4933957;28;20491;-58
2023/04/27 06:11:39;;;;;;;12.23;2.33;;;;;;;11.01;26.85;99527.69;4936843;28;20082;-58
2023/04/27 06:14:09;;;;;;;4.20;2.75;;;;;;;11.02;27.82;99533.78;4932432;28;20106;-60
2023/04/27 06:16:40;;;;;;;4.95;2.00;;;;;;;10.83;27.91;99532.59;4939234;28;20411;-59
2023/04/27 06:19:11;;;;;;;4.13;1.98;;;;;;;10.96;27.88;99531.34;4935855;28;20047;-58
2023/04/27 06:21:41;;;;;;;5.20;2.10;;;;;;;10.87;26.32;99537.69;4936969;28;20489;-58
2023/04/27 06:24:12;;;;;;;5.68;2.03;;;;;;;10.62;26.57;99542.78;4937071;28;20470;-58
2023/04/27 06:26:47;;;;;;;5.53;1.90;;;;;;;10.64;27.44;99509.63;4935646;28;20551;-58
2023/04/27 06:29:17;;;;;;;3.80;2.17;;;;;;;10.84;26.05;99531.72;4935728;28;20055;-59
2023/04/27 06:31:48;;;;;;;7.07;2.50;;;;;;;10.96;27.36;99541.81;4934685;28;20062;-59
2023/04/27 06:34:18;;;;;;;8.20;2.80;;;;;;;11.21;27.65;99536.69;4935005;28;20040;-58
2023/04/27 06:36:49;;;;;;;7.20;2.60;;;;;;;11.36;27.40;99524.91;4941443;28;20061;-59
2023/04/27 06:39:19;;;;;;;7.85;2.33;;;;;;;11.47;26.65;99533.25;4940024;28;20470;-59
2023/04/27 06:41:51;;;;;;;10.10;2.53;;;;;;;11.42;27.61;99536.00;4937981;28;20057;-59
2023/04/27 06:44:22;;;;;;;4.78;2.50;;;;;;;11.41;26.36;99551.78;4933429;28;20133;-60
2023/04/27 06:46:52;;;;;;;6.13;2.67;;;;;;;11.35;26.81;99549.34;4935542;28;20057;-57
2023/04/27 06:49:23;;;;;;;6.25;2.22;;;;;;;11.26;27.09;99553.09;4933966;28;21063;-58
2023/04/27 06:51:53;;;;;;;7.38;2.70;;;;;;;11.17;26.93;99563.84;4933335;28;20055;-58
2023/04/27 06:54:24;;;;;;;7.18;2.65;;;;;;;10.93;26.50;99536.66;4929801;28;20150;-59
2023/04/27 06:56:56;;;;;;;7.95;2.58;;;;;;;10.95;26.60;99566.22;4915063;28;20078;-58
2023/04/27 06:59:27;;;;;;;3.45;2.40;;;;;;;10.92;27.78;99576.78;4936442;28;20048;-58
2023/04/27 07:01:57;;;;;;;5.45;2.40;;;;;;;10.92;27.08;99582.00;4933940;28;20116;-58
2023/04/27 07:04:29;;;;;;;10.82;2.70;;;;;;;10.83;27.84;99571.78;4932856;28;20065;-59
2023/04/27 07:06:59;;;;;;;4.88;2.58;;;;;;;10.97;28.25;99580.09;4936815;28;20084;-58
2023/04/27 07:09:30;;;;;;;6.53;2.97;;;;;;;11.07;27.99;99597.22;4937781;28;20057;-57
2023/04/27 07:12:04;;;;;;;6.47;2.60;;;;;;;11.03;28.41;99574.69;4904996;28;20486;-58
2023/04/27 07:14:35;;;;;;;8.82;2.72;;;;;;;11.02;27.60;99588.66;4937943;28;21018;-59
2023/04/27 07:17:05;;;;;;;7.30;2.53;;;;;;;10.93;27.46;99602.00;4936137;28;20047;-59
2023/04/27 07:19:37;;;;;;;11.20;2.70;;;;;;;10.58;27.23;99575.97;4936690;28;20048;-59
2023/04/27 07:22:08;;;;;;;5.25;2.28;;;;;;;10.61;26.95;99609.00;4923995;28;20044;-59
2023/04/27 07:24:39;;;;;;;7.40;2.65;;;;;;;10.56;27.88;99605.66;4919716;28;20057;-58
2023/04/27 07:27:11;;;;;;;11.57;2.92;;;;;;;10.50;28.58;99605.78;4943084;28;20053;-59
2023/04/27 07:29:42;;;;;;;10.38;2.50;;;;;;;10.39;27.86;99618.28;4939000;28;20052;-60
2023/04/27 07:32:12;;;;;;;7.03;2.65;;;;;;;9.85;28.35;99549.97;4937625;28;20055;-59
2023/04/27 07:34:43;;;;;;;11.52;2.83;;;;;;;10.05;28.61;99622.56;4939691;28;20051;-59
2023/04/27 07:37:23;;;;;;;8.85;2.92;;;;;;;10.05;29.93;99619.09;4927461;28;20472;-59
2023/04/27 07:39:54;;;;;;;11.77;3.05;;;;;;;10.10;29.69;99623.28;4936927;28;20040;-58
2023/04/27 07:42:26;;;;;;;11.32;2.85;;;;;;;10.05;30.19;99609.50;4938164;28;20065;-59
2023/04/27 07:44:57;;;;;;;6.05;2.72;;;;;;;10.03;29.62;99620.88;4939170;28;20043;-59
2023/04/27 07:47:28;;;;;;;14.05;3.30;;;;;;;10.00;29.64;99627.03;4938664;28;20047;-59
2023/04/27 07:49:58;;;;;;;11.10;3.05;;;;;;;9.96;29.52;99619.31;4937078;28;20055;-60
2023/04/27 07:52:29;;;;;;;14.68;3.38;;;;;;;9.96;29.44;99609.75;4936431;28;20251;-60
2023/04/27 07:54:59;;;;;;;7.50;3.15;;;;;;;9.91;30.36;99612.47;4943279;28;20693;-60
2023/04/27 07:57:31;;;;;;;15.48;3.90;;;;;;;9.97;31.45;99623.66;4933675;28;20045;-59
2023/04/27 08:00:05;;;;;;;9.30;3.22;;;;;;;10.00;30.62;99620.97;4935967;28;20052;-60
2023/04/27 08:02:35;;;;;;;8.25;3.63;;;;;;;9.98;31.33;99625.34;4939788;28;20055;-61
2023/04/27 08:05:07;;;;;;;19.45;4.03;;;;;;;9.89;31.57;99622.09;4935462;28;20048;-60
2023/04/27 08:07:38;;;;;;;9.63;3.33;;;;;;;9.82;31.03;99625.72;4937277;28;20051;-59
2023/04/27 08:10:14;;;;;;;14.02;3.72;;;;;;;9.73;31.41;99628.53;4925123;28;20047;-61
2023/04/27 08:12:46;;;;;;;13.85;3.47;;;;;;;9.69;31.92;99621.69;4943170;28;20051;-60
2023/04/27 08:15:17;;;;;;;8.27;3.85;;;;;;;9.59;32.06;99630.63;4943184;28;20252;-60
2023/04/27 08:17:48;;;;;;;13.60;4.20;;;;;;;9.55;31.89;99634.19;4939206;28;20072;-60
2023/04/27 08:20:18;;;;;;;13.00;4.15;;;;;;;9.52;32.27;99629.03;4940543;28;20049;-60
2023/04/27 08:22:51;;;;;;;12.10;3.70;;;;;;;9.49;32.53;99630.81;4949917;28;20057;-59
2023/04/27 08:25:22;;;;;;;8.27;3.70;;;;;;;9.45;32.80;99626.56;4929769;28;20097;-60
2023/04/27 08:27:55;;;;;;;9.55;4.07;;;;;;;9.36;33.33;99612.84;4894485;28;20551;-60
2023/04/27 08:30:25;;;;;;;12.85;4.20;;;;;;;9.45;33.12;99634.38;4894029;28;20471;-58
2023/04/27 08:32:56;;;;;;;13.15;4.18;;;;;;;9.47;33.10;99637.81;4917578;28;20055;-59
2023/04/27 08:35:26;;;;;;;20.08;4.22;;;;;;;9.47;32.65;99639.56;4917451;28;20827;-58
2023/04/27 08:37:57;;;;;;;11.18;3.83;;;;;;;9.49;32.89;99643.84;4916670;28;20056;-59
2023/04/27 08:40:27;;;;;;;13.70;4.30;;;;;;;9.46;32.47;99640.44;4919292;28;20056;-59
2023/04/27 08:43:03;;;;;;;11.45;5.25;;;;;;;9.40;33.05;99641.44;4909836;28;20052;-59
2023/04/27 08:45:34;;;;;;;19.73;5.07;;;;;;;9.43;33.59;99643.13;4907331;28;20049;-59
2023/04/27 08:48:05;;;;;;;8.70;4.13;;;;;;;9.25;33.39;99633.94;4901486;28;20115;-59
2023/04/27 08:50:40;;;;;;;17.75;4.35;;;;;;;9.22;33.85;99647.06;4921472;28;20052;-59
2023/04/27 08:53:18;;;;;;;14.23;4.90;;;;;;;8.92;34.35;99628.53;4906962;28;20135;-58
2023/04/27 08:55:49;;;;;;;10.82;4.50;;;;;;;8.97;34.68;99644.94;4912014;28;20064;-59
2023/04/27 08:58:36;;;;;;;8.63;4.05;;;;;;;8.86;35.11;99639.06;4918568;28;20449;-59
2023/04/27 09:01:10;;;;;;;6.70;3.88;;;;;;;8.81;35.83;99643.50;4907721;28;21369;-59
2023/04/27 09:03:45;;;;;;;8.25;4.07;;;;;;;8.74;35.74;99644.53;4890807;28;20051;-58
2023/04/27 09:06:30;;;;;;;9.63;4.53;;;;;;;8.62;35.80;99661.25;4915997;28;20059;-58
2023/04/27 09:09:05;;;;;;;13.73;4.43;;;;;;;8.52;36.78;99676.16;4896658;28;20048;-58
2023/04/27 09:11:39;;;;;;;12.90;4.85;;;;;;;8.41;36.52;99652.03;4917888;28;20117;-59
2023/04/27 09:14:25;;;;;;;14.77;4.80;;;;;;;7.84;37.18;99581.84;4912199;28;20073;-59
2023/04/27 09:16:59;;;;;;;13.60;4.50;;;;;;;8.03;37.36;99645.69;4909733;28;20486;-59
2023/04/27 09:19:33;;;;;;;16.30;4.78;;;;;;;8.03;37.91;99669.13;4904911;28;20058;-58
2023/04/27 09:22:08;;;;;;;16.70;4.95;;;;;;;7.88;38.19;99666.75;4899069;28;20052;-58
2023/04/27 09:24:39;;;;;;;15.07;4.45;;;;;;;7.76;38.97;99673.88;4919955;28;20061;-58
2023/04/27 09:27:10;;;;;;;12.90;5.20;;;;;;;7.75;39.46;99674.75;4922609;28;20452;-58
2023/04/27 09:29:43;;;;;;;11.77;5.47;;;;;;;7.65;39.61;99675.75;4922777;28;20052;-59
2023/04/27 09:32:19;;;;;;;16.58;5.55;;;;;;;7.57;40.21;99677.59;4916697;28;20060;-58
2023/04/27 09:34:50;;;;;;;12.30;4.70;;;;;;;7.50;40.48;99681.16;4908557;28;20061;-58
2023/04/27 09:37:21;;;;;;;14.05;5.50;;;;;;;7.34;40.00;99670.13;4918244;28;20135;-58
2023/04/27 09:39:56;;;;;;;14.93;4.85;;;;;;;7.35;40.86;99666.63;4917809;28;20490;-59
2023/04/27 09:42:32;;;;;;;22.20;9.25;;;;;;;7.20;41.25;99672.88;4916268;28;20048;-58
2023/04/27 09:45:12;;;;;;;21.25;8.68;;;;;;;7.19;41.40;99681.56;4905527;28;20135;-57
2023/04/27 09:47:57;;;;;;;24.50;5.43;;;;;;;7.09;41.87;99674.75;4905458;28;20484;-59
2023/04/27 09:50:29;;;;;;;11.93;5.63;;;;;;;7.09;42.50;99685.16;4904982;27;20045;-58
2023/04/27 09:53:00;;;;;;;22.92;6.28;;;;;;;7.00;42.30;99680.91;4908502;28;20823;-60
2023/04/27 09:55:34;;;;;;;17.88;6.10;;;;;;;6.84;42.47;99675.03;4917747;28;21076;-58
2023/04/27 09:58:24;;;;;;;17.35;6.00;;;;;;;6.82;43.46;99681.09;4916642;28;20549;-58
2023/04/27 10:01:01;;;;;;;;;;;;;;;6.84;43.30;99680.22;4904804;28;20430;-59
2023/04/27 10:03:39;;;;;;;18.90;5.47;;;;;;;6.80;43.71;99683.72;4904991;28;20305;-59
2023/04/27 10:06:53;;;;;;;12.20;5.00;;;;;;;6.61;43.45;99692.53;4906630;28;20049;-58
2023/04/27 10:09:29;;;;;;;14.45;4.97;;;;;;;6.45;44.35;99692.69;4841093;28;20091;-58
2023/04/27 10:12:16;;;;;;;11.88;5.28;;;;;;;6.25;43.88;99704.97;4843407;28;20203;-58
2023/04/27 10:14:53;;;;;;;18.02;6.20;;;;;;;6.02;44.75;99706.00;4843619;28;20049;-58
2023/04/27 10:17:31;;;;;;;14.38;6.80;;;;;;;5.72;45.04;99700.97;4842389;28;20148;-58
2023/04/27 10:20:03;;;;;;;11.65;5.25;;;;;;;5.63;45.61;99715.69;4840629;28;20053;-58
2023/04/27 10:22:41;;;;;;;13.68;6.15;;;;;;;5.06;47.07;99660.69;4851126;28;20508;-58
2023/04/27 10:25:26;;;;;;;15.57;7.05;;;;;;;5.17;47.67;99710.72;4851484;28;20216;-58
2023/04/27 10:27:58;;;;;;;15.23;6.15;;;;;;;4.57;47.46;99640.13;4864355;28;20136;-58
2023/04/27 10:30:34;;;;;;;15.07;6.30;;;;;;;5.14;48.38;99747.00;4877460;28;20162;-58
2023/04/27 10:33:16;;;;;;;14.68;5.80;;;;;;;5.06;48.88;99738.34;4880398;28;20048;-58
2023/04/27 10:35:55;;;;;;;10.73;5.40;;;;;;;4.87;49.92;99684.94;4860801;28;20927;-58
2023/04/27 10:38:30;;;;;;;13.85;5.65;;;;;;;5.30;50.00;99762.50;4866970;28;20110;-57
2023/04/27 10:41:04;;;;;;;12.38;5.32;;;;;;;5.22;49.65;99756.44;4866938;28;20056;-58
2023/04/27 10:43:35;;;;;;;13.20;5.43;;;;;;;4.98;50.85;99743.56;4876409;28;20144;-58
2023/04/27 10:46:13;;;;;;;10.77;4.97;;;;;;;4.98;51.17;99766.84;4899724;28;20063;-58
2023/04/27 10:48:46;;;;;;;15.50;5.65;;;;;;;4.73;51.09;99776.38;4910899;28;20500;-57
2023/04/27 10:51:19;;;;;;;18.45;5.90;;;;;;;4.18;52.33;99789.28;4940441;28;20051;-57
2023/04/27 10:53:53;;;;;;;22.70;7.80;;;;;;;3.55;53.98;99762.41;4909251;28;20058;-57
2023/04/27 10:56:24;;;;;;;18.65;8.48;;;;;;;3.49;54.78;99803.69;4915681;28;20490;-57
2023/04/27 10:59:02;;;;;;;20.90;8.57;;;;;;;3.41;54.99;99804.50;4915082;28;20064;-57
2023/04/27 11:01:33;;;;;;;23.10;8.70;;;;;;;3.27;55.57;99808.75;4929791;28;20179;-57
2023/04/27 11:04:06;;;;;;;25.73;8.63;;;;;;;2.90;56.71;99787.00;4941321;28;20052;-57
2023/04/27 11:06:44;;;;;;;20.00;6.82;;;;;;;2.81;57.56;99808.44;4940965;28;20047;-57
2023/04/27 11:09:25;;;;;;;18.35;7.43;;;;;;;3.18;58.15;99808.69;4929902;28;20130;-58
2023/04/27 11:11:56;;;;;;;14.30;6.82;;;;;;;3.16;57.51;99815.56;4931344;28;20130;-57
2023/04/27 11:14:27;;;;;;;15.10;6.38;;;;;;;3.10;57.83;99800.03;4942289;28;20051;-57
2023/04/27 11:16:59;;;;;;;18.60;6.45;;;;;;;3.15;57.84;99813.84;4941039;28;20055;-57
2023/04/27 11:19:32;;;;;;;19.58;5.95;;;;;;;3.16;58.19;99810.38;4925712;28;20120;-57
2023/04/27 11:22:09;;;;;;;17.50;6.32;;;;;;;3.06;58.14;99818.94;4942008;28;20051;-57
2023/04/27 11:24:49;;;;;;;18.42;7.32;;;;;;;2.93;58.37;99818.84;4935258;28;20057;-57
2023/04/27 11:27:24;;;;;;;36.07;16.50;;;;;;;2.74;59.34;99816.97;4937048;28;20460;-57
2023/04/27 11:29:54;;;;;;;23.40;11.35;;;;;;;2.57;60.10;99819.41;4943199;28;20273;-57
2023/04/27 11:32:26;;;;;;;16.45;7.40;;;;;;;2.50;60.55;99809.91;4943980;28;20047;-57
2023/04/27 11:34:59;;;;;;;19.08;7.03;;;;;;;2.56;60.65;99820.25;4942458;28;20057;-57
2023/04/27 11:37:30;;;;;;;18.13;7.10;;;;;;;2.66;60.42;99828.94;4934661;28;20108;-57
2023/04/27 11:40:03;;;;;;;16.13;6.85;;;;;;;2.72;60.27;99839.28;4943213;28;20138;-56
2023/04/27 11:42:35;;;;;;;16.60;7.47;;;;;;;2.84;60.43;99823.91;4947678;28;20047;-57
2023/04/27 11:45:10;;;;;;;17.48;6.47;;;;;;;3.04;60.39;99821.50;4941375;28;20067;-57
2023/04/27 11:47:46;;;;;;;14.82;6.40;;;;;;;2.95;59.58;99822.31;4932795;28;20115;-57
2023/04/27 11:50:19;;;;;;;22.02;7.97;;;;;;;2.86;60.17;99821.38;4927225;28;21236;-57
2023/04/27 11:52:53;;;;;;;17.58;6.82;;;;;;;2.55;60.45;99801.34;4921821;28;20045;-57
2023/04/27 11:55:24;;;;;;;11.30;6.88;;;;;;;2.36;61.52;99813.19;4927584;28;20067;-57
2023/04/27 11:58:01;;;;;;;15.75;7.60;;;;;;;2.17;62.69;99819.00;4942261;28;20047;-57